sensor_id;sensor_type;location;lat;lon;timestamp;P1;durP1;ratioP1;P2;durP2;ratioP2
37777;SDS011;23615;51.506;7.678;2023-05-13T00:01:47;2.88;;;2.67;;
37777;SDS011;23615;51.506;7.678;2023-05-13T00:04:13;2.88;;;2.67;;
37777;SDS011;23615;51.506;7.678;2023-05-13T00:06:38;2.90;;;2.70;;
37777;SDS011;23615;51.506;7.678;2023-05-13T00:09:04;2.83;;;2.40;;
37777;SDS011;23615;51.506;7.678;2023-05-13T00:11:29;3.37;;;3.17;;
37777;SDS011;23615;51.506;7.678;2023-05-13T00:13:55;2.80;;;2.60;;
37777;SDS011;23615;51.506;7.678;2023-05-13T00:16:21;2.85;;;2.65;;
37777;SDS011;23615;51.506;7.678;2023-05-13T00:18:48;3.42;;;2.88;;
37777;SDS011;23615;51.506;7.678;2023-05-13T00:21:13;3.42;;;2.45;;
37777;SDS011;23615;51.506;7.678;2023-05-13T00:23:39;3.08;;;2.80;;
37777;SDS011;23615;51.506;7.678;2023-05-13T00:26:04;2.25;;;2.15;;
37777;SDS011;23615;51.506;7.678;2023-05-13T00:28:30;2.40;;;2.30;;
37777;SDS011;23615;51.506;7.678;2023-05-13T00:30:55;3.20;;;2.20;;
37777;SDS011;23615;51.506;7.678;2023-05-13T00:33:20;2.77;;;2.57;;
37777;SDS011;23615;51.506;7.678;2023-05-13T00:35:45;2.70;;;2.50;;
37777;SDS011;23615;51.506;7.678;2023-05-13T00:38:11;2.80;;;2.60;;
37777;SDS011;23615;51.506;7.678;2023-05-13T00:40:37;3.00;;;2.70;;
37777;SDS011;23615;51.506;7.678;2023-05-13T00:43:06;2.53;;;2.38;;
37777;SDS011;23615;51.506;7.678;2023-05-13T00:45:31;2.80;;;2.60;;
37777;SDS011;23615;51.506;7.678;2023-05-13T00:47:57;3.35;;;3.05;;
37777;SDS011;23615;51.506;7.678;2023-05-13T00:50:23;2.83;;;2.63;;
37777;SDS011;23615;51.506;7.678;2023-05-13T00:52:48;2.47;;;2.37;;
37777;SDS011;23615;51.506;7.678;2023-05-13T00:55:15;3.27;;;3.07;;
37777;SDS011;23615;51.506;7.678;2023-05-13T00:57:40;3.10;;;2.90;;
37777;SDS011;23615;51.506;7.678;2023-05-13T01:00:06;2.90;;;2.70;;
37777;SDS011;23615;51.506;7.678;2023-05-13T01:10:34;2.72;;;2.53;;
37777;SDS011;23615;51.506;7.678;2023-05-13T01:13:07;2.43;;;2.30;;
37777;SDS011;23615;51.506;7.678;2023-05-13T01:15:38;2.53;;;2.42;;
37777;SDS011;23615;51.506;7.678;2023-05-13T01:18:08;3.15;;;2.85;;
37777;SDS011;23615;51.506;7.678;2023-05-13T01:20:37;2.75;;;2.55;;
37777;SDS011;23615;51.506;7.678;2023-05-13T01:23:06;3.27;;;3.07;;
37777;SDS011;23615;51.506;7.678;2023-05-13T01:25:32;3.45;;;3.17;;
37777;SDS011;23615;51.506;7.678;2023-05-13T01:27:57;3.20;;;3.00;;
37777;SDS011;23615;51.506;7.678;2023-05-13T01:30:23;2.22;;;2.08;;
37777;SDS011;23615;51.506;7.678;2023-05-13T01:32:49;2.40;;;2.22;;
37777;SDS011;23615;51.506;7.678;2023-05-13T01:35:15;2.83;;;2.47;;
37777;SDS011;23615;51.506;7.678;2023-05-13T01:37:41;2.30;;;2.20;;
37777;SDS011;23615;51.506;7.678;2023-05-13T01:40:08;2.58;;;2.38;;
37777;SDS011;23615;51.506;7.678;2023-05-13T01:42:34;2.55;;;2.45;;
37777;SDS011;23615;51.506;7.678;2023-05-13T01:44:59;2.60;;;2.40;;
37777;SDS011;23615;51.506;7.678;2023-05-13T01:47:24;2.17;;;2.07;;
37777;SDS011;23615;51.506;7.678;2023-05-13T01:49:51;2.58;;;2.25;;
37777;SDS011;23615;51.506;7.678;2023-05-13T01:52:16;2.73;;;2.53;;
37777;SDS011;23615;51.506;7.678;2023-05-13T01:54:41;3.00;;;2.73;;
37777;SDS011;23615;51.506;7.678;2023-05-13T01:57:07;2.93;;;2.73;;
37777;SDS011;23615;51.506;7.678;2023-05-13T01:59:32;3.38;;;3.08;;
37777;SDS011;23615;51.506;7.678;2023-05-13T02:01:57;4.20;;;3.20;;
37777;SDS011;23615;51.506;7.678;2023-05-13T02:04:22;3.67;;;3.37;;
37777;SDS011;23615;51.506;7.678;2023-05-13T02:06:48;3.37;;;3.17;;
37777;SDS011;23615;51.506;7.678;2023-05-13T02:09:13;3.43;;;3.23;;
37777;SDS011;23615;51.506;7.678;2023-05-13T02:11:38;4.07;;;3.77;;
37777;SDS011;23615;51.506;7.678;2023-05-13T02:14:04;3.45;;;3.15;;
37777;SDS011;23615;51.506;7.678;2023-05-13T02:16:29;3.93;;;3.63;;
37777;SDS011;23615;51.506;7.678;2023-05-13T02:18:55;3.88;;;3.55;;
37777;SDS011;23615;51.506;7.678;2023-05-13T02:21:20;3.37;;;3.10;;
37777;SDS011;23615;51.506;7.678;2023-05-13T02:23:46;3.67;;;3.37;;
37777;SDS011;23615;51.506;7.678;2023-05-13T02:26:11;2.97;;;2.77;;
37777;SDS011;23615;51.506;7.678;2023-05-13T02:28:37;3.47;;;3.17;;
37777;SDS011;23615;51.506;7.678;2023-05-13T02:31:02;3.40;;;3.15;;
37777;SDS011;23615;51.506;7.678;2023-05-13T02:33:27;3.80;;;3.50;;
37777;SDS011;23615;51.506;7.678;2023-05-13T02:35:52;3.60;;;3.30;;
37777;SDS011;23615;51.506;7.678;2023-05-13T02:38:18;3.13;;;2.93;;
37777;SDS011;23615;51.506;7.678;2023-05-13T02:40:43;3.77;;;3.07;;
37777;SDS011;23615;51.506;7.678;2023-05-13T02:43:08;3.33;;;3.13;;
37777;SDS011;23615;51.506;7.678;2023-05-13T02:45:34;3.60;;;3.30;;
37777;SDS011;23615;51.506;7.678;2023-05-13T02:47:59;3.33;;;3.03;;
37777;SDS011;23615;51.506;7.678;2023-05-13T02:50:24;3.70;;;3.40;;
37777;SDS011;23615;51.506;7.678;2023-05-13T02:52:50;3.10;;;2.90;;
37777;SDS011;23615;51.506;7.678;2023-05-13T02:55:15;3.67;;;3.37;;
37777;SDS011;23615;51.506;7.678;2023-05-13T02:57:41;3.03;;;2.80;;
37777;SDS011;23615;51.506;7.678;2023-05-13T03:00:07;3.10;;;2.83;;
37777;SDS011;23615;51.506;7.678;2023-05-13T03:02:33;3.37;;;3.13;;
37777;SDS011;23615;51.506;7.678;2023-05-13T03:04:59;3.53;;;2.92;;
37777;SDS011;23615;51.506;7.678;2023-05-13T03:07:24;3.87;;;3.00;;
37777;SDS011;23615;51.506;7.678;2023-05-13T03:09:49;3.60;;;3.30;;
37777;SDS011;23615;51.506;7.678;2023-05-13T03:12:15;4.03;;;3.72;;
37777;SDS011;23615;51.506;7.678;2023-05-13T03:14:40;3.67;;;3.38;;
37777;SDS011;23615;51.506;7.678;2023-05-13T03:17:08;3.03;;;2.83;;
37777;SDS011;23615;51.506;7.678;2023-05-13T03:19:34;2.85;;;2.65;;
37777;SDS011;23615;51.506;7.678;2023-05-13T03:22:01;3.38;;;3.08;;
37777;SDS011;23615;51.506;7.678;2023-05-13T03:24:26;2.55;;;2.42;;
37777;SDS011;23615;51.506;7.678;2023-05-13T03:26:51;2.50;;;2.30;;
37777;SDS011;23615;51.506;7.678;2023-05-13T03:29:17;2.63;;;2.43;;
37777;SDS011;23615;51.506;7.678;2023-05-13T03:31:42;2.70;;;2.50;;
37777;SDS011;23615;51.506;7.678;2023-05-13T03:34:07;2.80;;;2.60;;
37777;SDS011;23615;51.506;7.678;2023-05-13T03:36:32;2.30;;;2.20;;
37777;SDS011;23615;51.506;7.678;2023-05-13T03:38:58;2.73;;;2.53;;
37777;SDS011;23615;51.506;7.678;2023-05-13T03:41:23;2.90;;;2.70;;
37777;SDS011;23615;51.506;7.678;2023-05-13T03:43:48;3.13;;;2.85;;
37777;SDS011;23615;51.506;7.678;2023-05-13T03:46:14;3.58;;;3.28;;
37777;SDS011;23615;51.506;7.678;2023-05-13T03:48:40;3.38;;;3.15;;
37777;SDS011;23615;51.506;7.678;2023-05-13T03:51:05;3.00;;;2.80;;
37777;SDS011;23615;51.506;7.678;2023-05-13T03:53:30;3.40;;;3.10;;
37777;SDS011;23615;51.506;7.678;2023-05-13T03:55:56;4.32;;;3.92;;
37777;SDS011;23615;51.506;7.678;2023-05-13T03:58:21;5.50;;;5.00;;
37777;SDS011;23615;51.506;7.678;2023-05-13T04:00:46;4.63;;;4.22;;
37777;SDS011;23615;51.506;7.678;2023-05-13T04:03:13;4.93;;;4.53;;
37777;SDS011;23615;51.506;7.678;2023-05-13T04:05:44;5.10;;;4.60;;
37777;SDS011;23615;51.506;7.678;2023-05-13T04:08:10;6.32;;;4.55;;
37777;SDS011;23615;51.506;7.678;2023-05-13T04:10:36;4.55;;;4.18;;
37777;SDS011;23615;51.506;7.678;2023-05-13T04:13:01;5.13;;;4.63;;
37777;SDS011;23615;51.506;7.678;2023-05-13T04:15:26;6.00;;;5.40;;
37777;SDS011;23615;51.506;7.678;2023-05-13T04:17:52;7.40;;;6.50;;
37777;SDS011;23615;51.506;7.678;2023-05-13T04:20:17;5.13;;;4.73;;
37777;SDS011;23615;51.506;7.678;2023-05-13T04:22:43;5.20;;;4.70;;
37777;SDS011;23615;51.506;7.678;2023-05-13T04:25:09;5.70;;;5.20;;
37777;SDS011;23615;51.506;7.678;2023-05-13T04:27:34;5.17;;;4.77;;
37777;SDS011;23615;51.506;7.678;2023-05-13T04:30:00;5.60;;;5.20;;
37777;SDS011;23615;51.506;7.678;2023-05-13T04:32:25;4.80;;;4.40;;
37777;SDS011;23615;51.506;7.678;2023-05-13T04:34:51;5.00;;;4.60;;
37777;SDS011;23615;51.506;7.678;2023-05-13T04:37:17;5.75;;;5.20;;
37777;SDS011;23615;51.506;7.678;2023-05-13T04:39:45;6.90;;;6.00;;
37777;SDS011;23615;51.506;7.678;2023-05-13T04:42:12;7.28;;;5.88;;
37777;SDS011;23615;51.506;7.678;2023-05-13T04:44:38;6.28;;;5.78;;
37777;SDS011;23615;51.506;7.678;2023-05-13T04:47:03;6.17;;;5.60;;
37777;SDS011;23615;51.506;7.678;2023-05-13T04:49:28;5.33;;;4.93;;
37777;SDS011;23615;51.506;7.678;2023-05-13T04:51:54;4.63;;;4.23;;
37777;SDS011;23615;51.506;7.678;2023-05-13T04:54:19;6.63;;;6.03;;
37777;SDS011;23615;51.506;7.678;2023-05-13T04:56:45;6.82;;;6.25;;
37777;SDS011;23615;51.506;7.678;2023-05-13T04:59:12;5.47;;;4.97;;
37777;SDS011;23615;51.506;7.678;2023-05-13T05:01:37;6.13;;;5.63;;
37777;SDS011;23615;51.506;7.678;2023-05-13T05:04:02;9.77;;;8.57;;
37777;SDS011;23615;51.506;7.678;2023-05-13T05:06:28;10.00;;;8.07;;
37777;SDS011;23615;51.506;7.678;2023-05-13T05:08:54;8.70;;;7.90;;
37777;SDS011;23615;51.506;7.678;2023-05-13T05:11:19;8.20;;;7.43;;
37777;SDS011;23615;51.506;7.678;2023-05-13T05:13:44;8.17;;;7.37;;
37777;SDS011;23615;51.506;7.678;2023-05-13T05:16:10;6.90;;;6.23;;
37777;SDS011;23615;51.506;7.678;2023-05-13T05:18:35;7.53;;;6.83;;
37777;SDS011;23615;51.506;7.678;2023-05-13T05:21:01;9.47;;;8.67;;
37777;SDS011;23615;51.506;7.678;2023-05-13T05:23:26;9.18;;;8.35;;
37777;SDS011;23615;51.506;7.678;2023-05-13T05:25:52;8.07;;;7.27;;
37777;SDS011;23615;51.506;7.678;2023-05-13T05:28:17;8.00;;;7.27;;
37777;SDS011;23615;51.506;7.678;2023-05-13T05:30:42;9.53;;;8.63;;
37777;SDS011;23615;51.506;7.678;2023-05-13T05:33:08;10.60;;;9.60;;
37777;SDS011;23615;51.506;7.678;2023-05-13T05:35:33;11.20;;;10.10;;
37777;SDS011;23615;51.506;7.678;2023-05-13T05:38:01;10.73;;;9.60;;
37777;SDS011;23615;51.506;7.678;2023-05-13T05:40:28;9.30;;;8.50;;
37777;SDS011;23615;51.506;7.678;2023-05-13T05:42:54;9.77;;;8.77;;
37777;SDS011;23615;51.506;7.678;2023-05-13T05:45:20;9.27;;;8.48;;
37777;SDS011;23615;51.506;7.678;2023-05-13T05:47:45;12.37;;;11.07;;
37777;SDS011;23615;51.506;7.678;2023-05-13T05:50:10;11.80;;;10.63;;
37777;SDS011;23615;51.506;7.678;2023-05-13T05:52:35;12.20;;;11.13;;
37777;SDS011;23615;51.506;7.678;2023-05-13T05:55:01;11.73;;;10.63;;
37777;SDS011;23615;51.506;7.678;2023-05-13T05:57:27;10.85;;;9.88;;
37777;SDS011;23615;51.506;7.678;2023-05-13T05:59:52;12.35;;;11.25;;
37777;SDS011;23615;51.506;7.678;2023-05-13T06:02:18;11.77;;;10.67;;
37777;SDS011;23615;51.506;7.678;2023-05-13T06:04:43;11.50;;;10.43;;
37777;SDS011;23615;51.506;7.678;2023-05-13T06:07:08;9.00;;;8.30;;
37777;SDS011;23615;51.506;7.678;2023-05-13T06:09:34;9.97;;;8.97;;
37777;SDS011;23615;51.506;7.678;2023-05-13T06:11:59;8.33;;;7.57;;
37777;SDS011;23615;51.506;7.678;2023-05-13T06:14:24;9.15;;;8.30;;
37777;SDS011;23615;51.506;7.678;2023-05-13T06:16:50;9.63;;;8.77;;
37777;SDS011;23615;51.506;7.678;2023-05-13T06:19:15;9.23;;;8.43;;
37777;SDS011;23615;51.506;7.678;2023-05-13T06:21:40;8.43;;;7.73;;
37777;SDS011;23615;51.506;7.678;2023-05-13T06:24:07;11.10;;;10.10;;
37777;SDS011;23615;51.506;7.678;2023-05-13T06:26:33;9.60;;;8.70;;
37777;SDS011;23615;51.506;7.678;2023-05-13T06:28:58;10.17;;;9.10;;
37777;SDS011;23615;51.506;7.678;2023-05-13T06:31:23;9.80;;;8.80;;
37777;SDS011;23615;51.506;7.678;2023-05-13T06:33:49;8.90;;;7.63;;
37777;SDS011;23615;51.506;7.678;2023-05-13T06:36:14;9.80;;;8.87;;
37777;SDS011;23615;51.506;7.678;2023-05-13T06:38:39;10.67;;;9.57;;
37777;SDS011;23615;51.506;7.678;2023-05-13T06:41:05;9.60;;;8.70;;
37777;SDS011;23615;51.506;7.678;2023-05-13T06:43:30;9.40;;;8.60;;
37777;SDS011;23615;51.506;7.678;2023-05-13T06:45:55;8.13;;;7.43;;
37777;SDS011;23615;51.506;7.678;2023-05-13T06:48:21;8.20;;;7.50;;
37777;SDS011;23615;51.506;7.678;2023-05-13T06:50:46;9.07;;;8.37;;
37777;SDS011;23615;51.506;7.678;2023-05-13T06:53:13;9.47;;;8.63;;
37777;SDS011;23615;51.506;7.678;2023-05-13T06:55:39;8.93;;;8.13;;
37777;SDS011;23615;51.506;7.678;2023-05-13T06:58:08;10.73;;;9.15;;
37777;SDS011;23615;51.506;7.678;2023-05-13T07:00:38;9.60;;;8.75;;
37777;SDS011;23615;51.506;7.678;2023-05-13T07:03:05;9.70;;;8.80;;
37777;SDS011;23615;51.506;7.678;2023-05-13T07:05:31;9.23;;;8.32;;
37777;SDS011;23615;51.506;7.678;2023-05-13T07:07:57;9.05;;;8.25;;
37777;SDS011;23615;51.506;7.678;2023-05-13T07:10:22;8.60;;;7.80;;
37777;SDS011;23615;51.506;7.678;2023-05-13T07:12:47;9.80;;;8.80;;
37777;SDS011;23615;51.506;7.678;2023-05-13T07:15:13;7.57;;;6.90;;
37777;SDS011;23615;51.506;7.678;2023-05-13T07:17:38;8.20;;;7.40;;
37777;SDS011;23615;51.506;7.678;2023-05-13T07:20:04;8.30;;;7.60;;
37777;SDS011;23615;51.506;7.678;2023-05-13T07:22:29;6.67;;;5.97;;
37777;SDS011;23615;51.506;7.678;2023-05-13T07:24:55;10.37;;;7.60;;
37777;SDS011;23615;51.506;7.678;2023-05-13T07:27:21;8.57;;;7.50;;
37777;SDS011;23615;51.506;7.678;2023-05-13T07:29:46;8.80;;;7.93;;
37777;SDS011;23615;51.506;7.678;2023-05-13T07:32:12;7.82;;;7.13;;
37777;SDS011;23615;51.506;7.678;2023-05-13T07:34:37;7.10;;;6.50;;
37777;SDS011;23615;51.506;7.678;2023-05-13T07:37:02;8.50;;;7.70;;
37777;SDS011;23615;51.506;7.678;2023-05-13T07:39:28;7.33;;;6.63;;
37777;SDS011;23615;51.506;7.678;2023-05-13T07:41:54;7.70;;;7.00;;
37777;SDS011;23615;51.506;7.678;2023-05-13T07:44:19;7.27;;;6.67;;
37777;SDS011;23615;51.506;7.678;2023-05-13T07:46:46;7.00;;;6.40;;
37777;SDS011;23615;51.506;7.678;2023-05-13T07:49:12;6.82;;;6.22;;
37777;SDS011;23615;51.506;7.678;2023-05-13T07:51:37;6.33;;;5.80;;
37777;SDS011;23615;51.506;7.678;2023-05-13T07:54:02;8.30;;;7.40;;
37777;SDS011;23615;51.506;7.678;2023-05-13T07:56:27;7.00;;;6.50;;
37777;SDS011;23615;51.506;7.678;2023-05-13T07:58:53;6.57;;;6.03;;
37777;SDS011;23615;51.506;7.678;2023-05-13T08:01:19;6.43;;;5.73;;
37777;SDS011;23615;51.506;7.678;2023-05-13T08:03:44;5.47;;;5.03;;
37777;SDS011;23615;51.506;7.678;2023-05-13T08:06:09;5.70;;;5.23;;
37777;SDS011;23615;51.506;7.678;2023-05-13T08:08:35;5.93;;;5.25;;
37777;SDS011;23615;51.506;7.678;2023-05-13T08:11:00;6.03;;;5.40;;
37777;SDS011;23615;51.506;7.678;2023-05-13T08:13:26;5.80;;;5.30;;
37777;SDS011;23615;51.506;7.678;2023-05-13T08:15:51;5.33;;;4.83;;
37777;SDS011;23615;51.506;7.678;2023-05-13T08:18:17;5.72;;;5.15;;
37777;SDS011;23615;51.506;7.678;2023-05-13T08:20:43;6.10;;;5.53;;
37777;SDS011;23615;51.506;7.678;2023-05-13T08:23:08;6.33;;;5.73;;
37777;SDS011;23615;51.506;7.678;2023-05-13T08:25:33;5.60;;;5.10;;
37777;SDS011;23615;51.506;7.678;2023-05-13T08:27:58;6.37;;;5.63;;
37777;SDS011;23615;51.506;7.678;2023-05-13T08:30:24;6.07;;;4.50;;
37777;SDS011;23615;51.506;7.678;2023-05-13T08:32:49;4.77;;;4.37;;
37777;SDS011;23615;51.506;7.678;2023-05-13T08:35:14;4.30;;;3.90;;
37777;SDS011;23615;51.506;7.678;2023-05-13T08:37:40;4.50;;;4.10;;
37777;SDS011;23615;51.506;7.678;2023-05-13T08:40:05;5.20;;;4.63;;
37777;SDS011;23615;51.506;7.678;2023-05-13T08:42:32;4.70;;;4.30;;
37777;SDS011;23615;51.506;7.678;2023-05-13T08:44:57;5.15;;;4.65;;
37777;SDS011;23615;51.506;7.678;2023-05-13T08:47:34;3.78;;;3.47;;
37777;SDS011;23615;51.506;7.678;2023-05-13T08:50:02;5.30;;;4.80;;
37777;SDS011;23615;51.506;7.678;2023-05-13T08:52:27;5.40;;;4.97;;
37777;SDS011;23615;51.506;7.678;2023-05-13T08:54:53;4.50;;;4.10;;
37777;SDS011;23615;51.506;7.678;2023-05-13T08:57:20;5.25;;;4.75;;
37777;SDS011;23615;51.506;7.678;2023-05-13T08:59:46;5.50;;;5.00;;
37777;SDS011;23615;51.506;7.678;2023-05-13T09:02:11;5.43;;;4.30;;
37777;SDS011;23615;51.506;7.678;2023-05-13T09:04:37;5.63;;;5.13;;
37777;SDS011;23615;51.506;7.678;2023-05-13T09:07:06;4.40;;;3.85;;
37777;SDS011;23615;51.506;7.678;2023-05-13T09:09:32;4.63;;;3.97;;
37777;SDS011;23615;51.506;7.678;2023-05-13T09:11:57;4.93;;;4.07;;
37777;SDS011;23615;51.506;7.678;2023-05-13T09:14:25;4.93;;;4.47;;
37777;SDS011;23615;51.506;7.678;2023-05-13T09:16:54;5.57;;;4.77;;
37777;SDS011;23615;51.506;7.678;2023-05-13T09:19:22;4.57;;;4.18;;
37777;SDS011;23615;51.506;7.678;2023-05-13T09:21:48;5.28;;;3.95;;
37777;SDS011;23615;51.506;7.678;2023-05-13T09:24:14;5.18;;;4.78;;
37777;SDS011;23615;51.506;7.678;2023-05-13T09:26:45;5.30;;;4.30;;
37777;SDS011;23615;51.506;7.678;2023-05-13T09:31:45;5.60;;;4.97;;
37777;SDS011;23615;51.506;7.678;2023-05-13T09:37:00;5.50;;;5.00;;
37777;SDS011;23615;51.506;7.678;2023-05-13T09:39:27;4.63;;;4.07;;
37777;SDS011;23615;51.506;7.678;2023-05-13T09:41:53;4.80;;;4.40;;
37777;SDS011;23615;51.506;7.678;2023-05-13T09:44:18;4.50;;;3.97;;
37777;SDS011;23615;51.506;7.678;2023-05-13T09:46:45;5.13;;;4.65;;
37777;SDS011;23615;51.506;7.678;2023-05-13T09:49:11;5.70;;;4.37;;
37777;SDS011;23615;51.506;7.678;2023-05-13T09:51:36;5.77;;;4.07;;
37777;SDS011;23615;51.506;7.678;2023-05-13T09:54:02;4.73;;;4.00;;
37777;SDS011;23615;51.506;7.678;2023-05-13T09:56:31;4.00;;;3.60;;
37777;SDS011;23615;51.506;7.678;2023-05-13T09:58:58;5.20;;;4.13;;
37777;SDS011;23615;51.506;7.678;2023-05-13T10:01:25;4.07;;;3.40;;
37777;SDS011;23615;51.506;7.678;2023-05-13T10:03:53;2.90;;;2.70;;
37777;SDS011;23615;51.506;7.678;2023-05-13T10:06:20;4.22;;;3.85;;
37777;SDS011;23615;51.506;7.678;2023-05-13T10:08:47;4.55;;;3.97;;
37777;SDS011;23615;51.506;7.678;2023-05-13T10:11:15;3.72;;;3.42;;
37777;SDS011;23615;51.506;7.678;2023-05-13T10:13:42;5.57;;;4.40;;
37777;SDS011;23615;51.506;7.678;2023-05-13T10:16:13;4.30;;;3.90;;
37777;SDS011;23615;51.506;7.678;2023-05-13T10:18:39;4.55;;;3.30;;
37777;SDS011;23615;51.506;7.678;2023-05-13T10:21:05;3.77;;;3.17;;
37777;SDS011;23615;51.506;7.678;2023-05-13T10:23:31;3.50;;;2.60;;
37777;SDS011;23615;51.506;7.678;2023-05-13T10:25:58;3.08;;;2.40;;
37777;SDS011;23615;51.506;7.678;2023-05-13T10:28:23;3.58;;;3.28;;
37777;SDS011;23615;51.506;7.678;2023-05-13T10:30:49;3.03;;;2.72;;
37777;SDS011;23615;51.506;7.678;2023-05-13T10:33:17;2.70;;;2.13;;
37777;SDS011;23615;51.506;7.678;2023-05-13T10:44:13;3.00;;;2.53;;
37777;SDS011;23615;51.506;7.678;2023-05-13T10:46:38;4.97;;;2.10;;
37777;SDS011;23615;51.506;7.678;2023-05-13T10:49:06;2.53;;;2.03;;
37777;SDS011;23615;51.506;7.678;2023-05-13T10:51:38;3.28;;;2.25;;
37777;SDS011;23615;51.506;7.678;2023-05-13T10:54:16;2.90;;;2.05;;
37777;SDS011;23615;51.506;7.678;2023-05-13T10:56:43;4.18;;;2.75;;
37777;SDS011;23615;51.506;7.678;2023-05-13T10:59:08;2.40;;;2.20;;
37777;SDS011;23615;51.506;7.678;2023-05-13T11:01:36;3.35;;;2.28;;
37777;SDS011;23615;51.506;7.678;2023-05-13T11:04:10;2.88;;;2.20;;
37777;SDS011;23615;51.506;7.678;2023-05-13T11:06:38;2.73;;;2.40;;
37777;SDS011;23615;51.506;7.678;2023-05-13T11:09:11;3.28;;;2.58;;
37777;SDS011;23615;51.506;7.678;2023-05-13T11:11:38;3.92;;;2.33;;
37777;SDS011;23615;51.506;7.678;2023-05-13T11:14:05;6.67;;;2.33;;
37777;SDS011;23615;51.506;7.678;2023-05-13T11:16:51;2.58;;;2.33;;
37777;SDS011;23615;51.506;7.678;2023-05-13T11:19:29;2.20;;;2.07;;
37777;SDS011;23615;51.506;7.678;2023-05-13T11:21:56;2.35;;;1.63;;
37777;SDS011;23615;51.506;7.678;2023-05-13T11:24:28;4.77;;;2.37;;
37777;SDS011;23615;51.506;7.678;2023-05-13T11:26:54;3.43;;;2.27;;
37777;SDS011;23615;51.506;7.678;2023-05-13T11:29:28;2.83;;;2.40;;
37777;SDS011;23615;51.506;7.678;2023-05-13T11:31:55;4.57;;;3.10;;
37777;SDS011;23615;51.506;7.678;2023-05-13T11:34:22;3.22;;;2.92;;
37777;SDS011;23615;51.506;7.678;2023-05-13T11:36:48;3.40;;;2.30;;
37777;SDS011;23615;51.506;7.678;2023-05-13T11:39:20;4.05;;;2.28;;
37777;SDS011;23615;51.506;7.678;2023-05-13T11:41:50;4.88;;;3.08;;
37777;SDS011;23615;51.506;7.678;2023-05-13T11:44:20;3.80;;;2.38;;
37777;SDS011;23615;51.506;7.678;2023-05-13T11:46:48;2.50;;;1.80;;
37777;SDS011;23615;51.506;7.678;2023-05-13T11:49:39;3.00;;;1.77;;
37777;SDS011;23615;51.506;7.678;2023-05-13T11:52:07;2.58;;;1.88;;
37777;SDS011;23615;51.506;7.678;2023-05-13T11:54:50;2.72;;;1.88;;
37777;SDS011;23615;51.506;7.678;2023-05-13T11:59:57;2.30;;;1.87;;
37777;SDS011;23615;51.506;7.678;2023-05-13T12:02:25;2.50;;;1.30;;
37777;SDS011;23615;51.506;7.678;2023-05-13T12:04:55;1.60;;;1.50;;
37777;SDS011;23615;51.506;7.678;2023-05-13T12:07:24;2.22;;;1.40;;
37777;SDS011;23615;51.506;7.678;2023-05-13T12:09:51;2.85;;;1.98;;
37777;SDS011;23615;51.506;7.678;2023-05-13T12:12:18;2.75;;;2.03;;
37777;SDS011;23615;51.506;7.678;2023-05-13T12:14:44;1.77;;;1.52;;
37777;SDS011;23615;51.506;7.678;2023-05-13T12:17:13;2.00;;;1.80;;
37777;SDS011;23615;51.506;7.678;2023-05-13T12:19:39;1.98;;;1.35;;
37777;SDS011;23615;51.506;7.678;2023-05-13T12:22:05;2.30;;;1.53;;
37777;SDS011;23615;51.506;7.678;2023-05-13T12:24:32;3.93;;;1.77;;
37777;SDS011;23615;51.506;7.678;2023-05-13T12:27:06;4.55;;;1.80;;
37777;SDS011;23615;51.506;7.678;2023-05-13T12:29:38;1.58;;;1.48;;
37777;SDS011;23615;51.506;7.678;2023-05-13T12:32:04;6.28;;;2.15;;
37777;SDS011;23615;51.506;7.678;2023-05-13T12:34:30;1.92;;;1.23;;
37777;SDS011;23615;51.506;7.678;2023-05-13T12:36:56;3.13;;;1.17;;
37777;SDS011;23615;51.506;7.678;2023-05-13T12:39:33;2.67;;;1.50;;
37777;SDS011;23615;51.506;7.678;2023-05-13T12:41:58;2.40;;;1.47;;
37777;SDS011;23615;51.506;7.678;2023-05-13T12:44:23;1.20;;;1.10;;
37777;SDS011;23615;51.506;7.678;2023-05-13T12:46:51;1.50;;;1.40;;
37777;SDS011;23615;51.506;7.678;2023-05-13T12:49:21;1.48;;;1.33;;
37777;SDS011;23615;51.506;7.678;2023-05-13T12:51:47;1.35;;;1.10;;
37777;SDS011;23615;51.506;7.678;2023-05-13T12:54:12;3.13;;;1.53;;
37777;SDS011;23615;51.506;7.678;2023-05-13T12:56:38;1.33;;;1.20;;
37777;SDS011;23615;51.506;7.678;2023-05-13T12:59:06;3.60;;;1.92;;
37777;SDS011;23615;51.506;7.678;2023-05-13T13:01:32;1.50;;;1.40;;
37777;SDS011;23615;51.506;7.678;2023-05-13T13:03:58;2.27;;;1.23;;
37777;SDS011;23615;51.506;7.678;2023-05-13T13:06:23;1.93;;;1.53;;
37777;SDS011;23615;51.506;7.678;2023-05-13T13:08:48;1.47;;;0.83;;
37777;SDS011;23615;51.506;7.678;2023-05-13T13:11:13;2.13;;;1.40;;
37777;SDS011;23615;51.506;7.678;2023-05-13T13:13:42;2.60;;;1.67;;
37777;SDS011;23615;51.506;7.678;2023-05-13T13:16:08;2.45;;;1.70;;
37777;SDS011;23615;51.506;7.678;2023-05-13T13:18:33;3.40;;;1.43;;
37777;SDS011;23615;51.506;7.678;2023-05-13T13:20:59;1.17;;;1.10;;
37777;SDS011;23615;51.506;7.678;2023-05-13T13:23:25;1.60;;;1.37;;
37777;SDS011;23615;51.506;7.678;2023-05-13T13:25:50;1.53;;;1.43;;
37777;SDS011;23615;51.506;7.678;2023-05-13T13:28:15;3.53;;;1.48;;
37777;SDS011;23615;51.506;7.678;2023-05-13T13:30:41;2.13;;;1.63;;
37777;SDS011;23615;51.506;7.678;2023-05-13T13:33:10;3.05;;;1.48;;
37777;SDS011;23615;51.506;7.678;2023-05-13T13:35:37;2.63;;;1.30;;
37777;SDS011;23615;51.506;7.678;2023-05-13T13:38:02;1.50;;;1.30;;
37777;SDS011;23615;51.506;7.678;2023-05-13T13:40:28;1.30;;;1.20;;
37777;SDS011;23615;51.506;7.678;2023-05-13T13:42:53;1.80;;;1.67;;
37777;SDS011;23615;51.506;7.678;2023-05-13T13:45:18;2.07;;;1.40;;
37777;SDS011;23615;51.506;7.678;2023-05-13T13:47:47;2.90;;;1.67;;
37777;SDS011;23615;51.506;7.678;2023-05-13T13:50:13;2.73;;;1.53;;
37777;SDS011;23615;51.506;7.678;2023-05-13T13:52:38;2.13;;;2.00;;
37777;SDS011;23615;51.506;7.678;2023-05-13T13:55:04;3.40;;;1.98;;
37777;SDS011;23615;51.506;7.678;2023-05-13T13:57:29;2.40;;;2.13;;
37777;SDS011;23615;51.506;7.678;2023-05-13T13:59:55;4.57;;;1.93;;
37777;SDS011;23615;51.506;7.678;2023-05-13T14:02:20;2.37;;;1.57;;
37777;SDS011;23615;51.506;7.678;2023-05-13T14:04:45;2.30;;;1.37;;
37777;SDS011;23615;51.506;7.678;2023-05-13T14:07:11;2.10;;;1.50;;
37777;SDS011;23615;51.506;7.678;2023-05-13T14:09:36;3.33;;;1.50;;
37777;SDS011;23615;51.506;7.678;2023-05-13T14:12:02;1.55;;;1.30;;
37777;SDS011;23615;51.506;7.678;2023-05-13T14:14:28;2.05;;;1.65;;
37777;SDS011;23615;51.506;7.678;2023-05-13T14:16:53;2.50;;;1.60;;
37777;SDS011;23615;51.506;7.678;2023-05-13T14:19:18;3.13;;;1.73;;
37777;SDS011;23615;51.506;7.678;2023-05-13T14:21:47;1.80;;;1.70;;
37777;SDS011;23615;51.506;7.678;2023-05-13T14:24:12;1.48;;;1.38;;
37777;SDS011;23615;51.506;7.678;2023-05-13T14:26:37;1.93;;;1.50;;
37777;SDS011;23615;51.506;7.678;2023-05-13T14:29:03;1.20;;;1.10;;
37777;SDS011;23615;51.506;7.678;2023-05-13T14:31:28;1.37;;;0.97;;
37777;SDS011;23615;51.506;7.678;2023-05-13T14:33:54;1.93;;;1.47;;
37777;SDS011;23615;51.506;7.678;2023-05-13T14:36:19;2.63;;;1.40;;
37777;SDS011;23615;51.506;7.678;2023-05-13T14:38:46;2.85;;;1.58;;
37777;SDS011;23615;51.506;7.678;2023-05-13T14:41:11;1.47;;;1.27;;
37777;SDS011;23615;51.506;7.678;2023-05-13T14:43:43;1.35;;;1.25;;
37777;SDS011;23615;51.506;7.678;2023-05-13T14:46:09;2.05;;;1.27;;
37777;SDS011;23615;51.506;7.678;2023-05-13T14:48:34;1.97;;;1.40;;
37777;SDS011;23615;51.506;7.678;2023-05-13T14:50:59;2.10;;;1.13;;
37777;SDS011;23615;51.506;7.678;2023-05-13T14:53:25;2.35;;;1.50;;
37777;SDS011;23615;51.506;7.678;2023-05-13T14:55:50;1.57;;;1.47;;
37777;SDS011;23615;51.506;7.678;2023-05-13T14:58:15;2.13;;;1.57;;
37777;SDS011;23615;51.506;7.678;2023-05-13T15:00:41;1.63;;;1.33;;
37777;SDS011;23615;51.506;7.678;2023-05-13T15:03:06;2.27;;;1.20;;
37777;SDS011;23615;51.506;7.678;2023-05-13T15:05:31;2.07;;;1.27;;